Time;durP1;ratioP1;P1;durP2;ratioP2;P2;SDS_P1;SDS_P2;PMS_P1;PMS_P2;Temp;Humidity;BMP_temperature;BMP_pressure;BME280_temperature;BME280_humidity;BME280_pressure;Samples;Min_cycle;Max_cycle;Signal;HPM_P1;HPM_P2
2022/10/01 00:02:06;;;;;;;1.17;1.17;;;9.50;99.90;;;;;;5083354;28;20199;-49
2022/10/01 00:04:35;;;;;;;1.53;0.73;;;9.40;99.90;;;;;;5087456;28;20200;-48
2022/10/01 00:07:03;;;;;;;0.93;0.93;;;9.40;99.90;;;;;;5082739;28;20687;-49
2022/10/01 00:09:32;;;;;;;1.90;0.97;;;9.40;99.90;;;;;;5078404;28;20775;-48
2022/10/01 00:11:59;;;;;;;1.10;1.03;;;9.30;99.90;;;;;;5080640;28;20210;-49
2022/10/01 00:14:27;;;;;;;1.87;0.83;;;9.30;99.90;;;;;;5085141;28;20203;-49
2022/10/01 00:16:54;;;;;;;1.03;1.03;;;9.30;99.90;;;;;;5083832;28;20238;-49
2022/10/01 00:19:21;;;;;;;1.10;1.10;;;9.20;99.90;;;;;;5086742;28;20599;-49
2022/10/01 00:21:48;;;;;;;0.97;0.90;;;9.20;99.90;;;;;;5090874;28;20241;-49
2022/10/01 00:24:15;;;;;;;1.23;0.80;;;9.20;99.90;;;;;;5086004;28;20211;-50
2022/10/01 00:26:46;;;;;;;0.90;0.90;;;9.20;99.90;;;;;;5089543;28;20209;-49
2022/10/01 00:29:14;;;;;;;1.30;1.07;;;9.10;99.90;;;;;;5092035;28;20231;-49
2022/10/01 00:31:41;;;;;;;0.70;0.70;;;9.10;99.90;;;;;;5091949;28;20200;-49
2022/10/01 00:34:11;;;;;;;1.00;1.00;;;9.00;99.90;;;;;;5091804;28;20210;-49
2022/10/01 00:36:38;;;;;;;1.13;1.13;;;9.00;99.90;;;;;;5084800;28;20202;-48
2022/10/01 00:39:05;;;;;;;1.73;1.20;;;8.90;99.90;;;;;;5083112;28;20218;-50
2022/10/01 00:41:34;;;;;;;1.03;0.80;;;8.90;99.90;;;;;;5087691;28;20199;-49
2022/10/01 00:44:23;;;;;;;0.90;0.90;;;8.90;99.90;;;;;;5081788;28;20202;-51
2022/10/01 00:46:52;;;;;;;0.80;0.80;;;8.90;99.90;;;;;;5091716;28;20198;-49
2022/10/01 00:49:23;;;;;;;0.80;0.80;;;8.80;99.90;;;;;;5086337;28;20231;-50
2022/10/01 00:51:52;;;;;;;1.07;1.07;;;8.80;99.90;;;;;;5091650;28;20221;-49
2022/10/01 00:54:24;;;;;;;1.27;1.17;;;8.80;99.90;;;;;;5083059;28;20213;-49
2022/10/01 00:56:53;;;;;;;1.17;1.00;;;8.80;99.90;;;;;;5091812;28;20196;-49
2022/10/01 00:59:22;;;;;;;0.90;0.90;;;8.70;99.90;;;;;;5084762;28;20222;-48
2022/10/01 01:01:49;;;;;;;1.67;0.90;;;8.70;99.90;;;;;;5091381;28;20200;-49
2022/10/01 01:04:16;;;;;;;1.37;1.00;;;8.70;99.90;;;;;;5091415;28;20224;-49
2022/10/01 01:06:44;;;;;;;3.97;1.20;;;8.70;99.90;;;;;;5072400;28;20204;-49
2022/10/01 01:09:11;;;;;;;1.50;1.00;;;8.80;99.90;;;;;;5085199;28;20218;-50
2022/10/01 01:11:48;;;;;;;1.27;1.17;;;8.80;99.90;;;;;;5084932;28;20206;-49
2022/10/01 01:14:22;;;;;;;1.40;1.30;;;8.80;99.90;;;;;;5086089;28;20687;-50
2022/10/01 01:16:56;;;;;;;1.90;1.80;;;8.80;99.90;;;;;;5091492;28;20202;-49
2022/10/01 01:19:37;;;;;;;1.00;0.97;;;8.80;99.90;;;;;;5089465;28;20215;-49
2022/10/01 01:22:07;;;;;;;1.20;1.10;;;8.80;99.90;;;;;;5084901;28;20206;-49
2022/10/01 01:24:49;;;;;;;0.83;0.83;;;8.80;99.90;;;;;;5084529;28;20681;-49
2022/10/01 01:27:30;;;;;;;1.00;1.00;;;8.90;99.90;;;;;;5088699;28;20576;-48
2022/10/01 01:30:03;;;;;;;1.47;1.37;;;8.90;99.90;;;;;;5089276;28;20237;-49
2022/10/01 01:32:37;;;;;;;1.07;0.90;;;9.00;99.90;;;;;;5088867;28;20252;-49
2022/10/01 01:35:08;;;;;;;2.87;1.20;;;9.10;99.90;;;;;;5083084;28;20238;-49
2022/10/01 01:37:39;;;;;;;1.10;1.10;;;9.10;99.90;;;;;;5080852;28;20204;-49
2022/10/01 01:40:10;;;;;;;1.07;1.07;;;9.20;99.90;;;;;;5083726;28;20588;-49
2022/10/01 01:42:40;;;;;;;2.93;1.20;;;9.20;99.90;;;;;;5088266;28;20210;-48
2022/10/01 01:45:14;;;;;;;2.50;1.20;;;9.20;99.90;;;;;;5090992;28;20206;-50
2022/10/01 01:47:43;;;;;;;1.30;1.17;;;9.20;99.90;;;;;;5091122;28;20203;-50
2022/10/01 01:50:13;;;;;;;1.87;1.73;;;9.20;99.90;;;;;;5081581;28;20703;-49
2022/10/01 01:52:40;;;;;;;1.90;0.90;;;9.20;99.90;;;;;;5090708;28;20626;-50
2022/10/01 01:55:09;;;;;;;2.20;1.00;;;9.20;99.90;;;;;;5091886;28;20211;-49
2022/10/01 01:57:40;;;;;;;0.90;0.90;;;9.20;99.90;;;;;;5091624;28;20201;-49
2022/10/01 02:00:11;;;;;;;1.77;1.37;;;9.20;99.90;;;;;;5083869;28;20212;-49
2022/10/01 02:02:40;;;;;;;1.90;1.00;;;9.20;99.90;;;;;;5094859;28;20228;-50
2022/10/01 02:05:09;;;;;;;1.47;1.07;;;9.10;99.90;;;;;;5092279;28;20224;-49
2022/10/01 02:07:54;;;;;;;1.30;1.20;;;9.10;99.90;;;;;;5094628;28;20224;-49
2022/10/01 02:10:35;;;;;;;1.80;1.13;;;9.10;99.90;;;;;;5093009;28;20229;-49
2022/10/01 02:13:16;;;;;;;1.23;1.13;;;9.10;99.90;;;;;;5086930;28;20202;-49
2022/10/01 02:15:58;;;;;;;1.10;1.10;;;9.10;99.90;;;;;;5094385;28;20673;-50
2022/10/01 02:18:36;;;;;;;1.03;1.03;;;9.10;99.90;;;;;;5092796;28;20213;-50
2022/10/01 02:21:10;;;;;;;0.90;0.90;;;9.10;99.90;;;;;;5085987;28;20226;-50
2022/10/01 02:23:44;;;;;;;1.17;1.17;;;9.10;99.90;;;;;;5088216;28;20252;-50
2022/10/01 02:26:16;;;;;;;1.37;1.27;;;9.00;99.90;;;;;;5089550;28;20201;-49
2022/10/01 02:28:44;;;;;;;1.17;1.10;;;9.00;99.90;;;;;;5090982;28;20215;-49
2022/10/01 02:31:14;;;;;;;0.97;0.80;;;9.00;99.90;;;;;;5094101;28;20209;-49
2022/10/01 02:33:42;;;;;;;1.00;1.00;;;8.90;99.90;;;;;;5092643;28;20215;-49
2022/10/01 02:36:11;;;;;;;2.33;1.20;;;9.00;99.90;;;;;;5087528;28;20646;-49
2022/10/01 02:38:40;;;;;;;1.73;1.50;;;9.10;99.90;;;;;;5089822;28;20227;-50
2022/10/01 02:41:10;;;;;;;1.57;1.47;;;9.20;99.90;;;;;;5090355;28;20665;-48
2022/10/01 02:43:42;;;;;;;1.97;1.10;;;9.20;99.90;;;;;;5092292;28;20232;-49
2022/10/01 02:46:16;;;;;;;1.60;1.50;;;9.10;99.90;;;;;;5091903;28;20206;-49
2022/10/01 02:48:43;;;;;;;1.17;1.07;;;9.10;99.90;;;;;;5091948;28;20761;-50
2022/10/01 02:51:31;;;;;;;1.67;1.63;;;9.00;99.90;;;;;;5081978;28;20231;-50
2022/10/01 02:54:06;;;;;;;2.00;1.90;;;8.90;99.90;;;;;;5093434;28;20255;-48
2022/10/01 02:59:20;;;;;;;1.60;1.60;;;8.80;99.90;;;;;;5085480;28;20214;-49
2022/10/01 03:01:48;;;;;;;2.03;1.90;;;8.80;99.90;;;;;;5093520;28;20287;-49
2022/10/01 03:04:17;;;;;;;3.00;2.20;;;8.80;99.90;;;;;;5089596;28;20210;-48
2022/10/01 03:06:44;;;;;;;1.67;1.57;;;8.70;99.90;;;;;;5091074;28;20204;-50
2022/10/01 03:09:12;;;;;;;5.27;3.67;;;8.70;99.90;;;;;;5090941;28;20219;-49
2022/10/01 03:11:39;;;;;;;5.10;1.77;;;8.70;99.90;;;;;;5087855;28;20200;-48
2022/10/01 03:14:06;;;;;;;1.53;1.43;;;8.70;99.90;;;;;;5083358;28;20198;-49
2022/10/01 03:16:33;;;;;;;1.63;1.57;;;8.80;99.90;;;;;;5093118;28;20234;-51
2022/10/01 03:19:02;;;;;;;2.43;1.10;;;8.80;99.90;;;;;;5093413;28;20231;-50
2022/10/01 03:21:29;;;;;;;1.53;1.13;;;8.90;99.90;;;;;;5093215;28;20693;-50
2022/10/01 03:23:56;;;;;;;1.67;1.57;;;8.80;99.90;;;;;;5090197;28;20231;-49
2022/10/01 03:26:23;;;;;;;1.33;1.23;;;8.80;99.90;;;;;;5092928;28;20210;-49
2022/10/01 03:28:50;;;;;;;1.33;1.23;;;8.80;99.90;;;;;;5084172;28;20226;-49
2022/10/01 03:31:17;;;;;;;1.80;0.67;;;8.70;99.90;;;;;;5086544;28;20212;-50
2022/10/01 03:33:44;;;;;;;0.60;0.60;;;8.70;99.90;;;;;;5092982;28;20209;-50
2022/10/01 03:36:12;;;;;;;1.43;0.80;;;8.70;99.90;;;;;;5092917;28;20207;-49
2022/10/01 03:38:39;;;;;;;1.90;0.90;;;8.70;99.90;;;;;;5090178;28;20225;-50
2022/10/01 03:41:06;;;;;;;1.00;0.70;;;8.70;99.90;;;;;;5092967;28;20202;-48
2022/10/01 03:43:35;;;;;;;0.93;0.70;;;8.70;99.90;;;;;;5077484;28;20210;-50
2022/10/01 03:46:03;;;;;;;1.43;0.77;;;8.70;99.90;;;;;;5080368;28;20211;-49
2022/10/01 03:48:32;;;;;;;0.53;0.53;;;8.70;99.90;;;;;;5085637;28;20221;-48
2022/10/01 03:51:00;;;;;;;0.67;0.60;;;8.80;99.90;;;;;;5083804;28;20691;-50
2022/10/01 03:53:30;;;;;;;0.60;0.60;;;8.80;99.90;;;;;;5091104;28;20198;-49
2022/10/01 03:55:57;;;;;;;1.43;0.70;;;8.80;99.90;;;;;;5086430;28;20219;-48
2022/10/01 03:58:25;;;;;;;1.70;0.93;;;8.90;99.90;;;;;;5086855;28;20553;-48
2022/10/01 04:00:54;;;;;;;0.50;0.50;;;9.00;99.90;;;;;;5087025;28;20211;-49
2022/10/01 04:03:21;;;;;;;0.60;0.60;;;9.00;99.90;;;;;;5090306;28;20196;-49
2022/10/01 04:05:48;;;;;;;0.50;0.50;;;9.00;99.90;;;;;;5085897;28;20206;-48
2022/10/01 04:08:16;;;;;;;0.70;0.70;;;9.00;99.90;;;;;;5087513;28;20198;-49
2022/10/01 04:10:44;;;;;;;0.93;0.73;;;8.90;99.90;;;;;;5090476;28;20222;-48
2022/10/01 04:13:11;;;;;;;2.07;1.97;;;8.90;99.90;;;;;;5090909;28;20199;-49
2022/10/01 04:15:39;;;;;;;1.17;1.17;;;8.90;99.90;;;;;;5090732;28;20202;-49
2022/10/01 04:18:06;;;;;;;2.17;1.60;;;8.80;99.90;;;;;;5090813;28;20249;-50
2022/10/01 04:20:34;;;;;;;1.30;1.30;;;8.70;99.90;;;;;;5084737;28;20213;-49
2022/10/01 04:23:02;;;;;;;1.70;1.63;;;8.70;99.90;;;;;;5088195;28;20256;-50
2022/10/01 04:25:30;;;;;;;0.73;0.73;;;8.70;99.90;;;;;;5090759;28;20560;-49
2022/10/01 04:28:00;;;;;;;1.13;1.00;;;8.60;99.90;;;;;;5090189;28;20198;-49
2022/10/01 04:30:28;;;;;;;0.80;0.80;;;8.50;99.90;;;;;;5088241;28;20288;-49
2022/10/01 04:32:55;;;;;;;2.13;1.97;;;8.50;99.90;;;;;;5084137;28;20219;-48
2022/10/01 04:35:23;;;;;;;1.40;1.33;;;8.40;99.90;;;;;;5090426;28;20676;-51
2022/10/01 04:37:57;;;;;;;2.70;1.50;;;8.40;99.90;;;;;;5083886;28;20207;-49
2022/10/01 04:40:24;;;;;;;1.43;1.23;;;8.50;99.90;;;;;;5088088;28;20218;-49
2022/10/01 04:42:51;;;;;;;1.33;1.23;;;8.50;99.90;;;;;;5090454;28;20198;-50
2022/10/01 04:45:20;;;;;;;0.83;0.83;;;8.40;99.90;;;;;;5086585;28;20208;-49
2022/10/01 04:47:50;;;;;;;4.17;1.17;;;8.40;99.90;;;;;;5090358;28;20202;-49
2022/10/01 04:50:18;;;;;;;1.73;1.10;;;8.40;99.90;;;;;;5083706;28;20229;-48
2022/10/01 04:52:46;;;;;;;2.10;1.00;;;8.40;99.90;;;;;;5090563;28;20196;-48
2022/10/01 04:55:13;;;;;;;1.67;1.57;;;8.30;99.90;;;;;;5084049;28;20287;-49
2022/10/01 04:57:40;;;;;;;1.17;1.17;;;8.40;99.90;;;;;;5087852;28;20837;-49
2022/10/01 05:00:09;;;;;;;1.83;1.03;;;8.40;99.90;;;;;;5087270;28;20221;-49
2022/10/01 05:02:38;;;;;;;0.60;0.60;;;8.40;99.90;;;;;;5090318;28;20206;-49
2022/10/01 05:05:07;;;;;;;2.70;1.03;;;8.40;99.90;;;;;;5090382;28;20217;-49
2022/10/01 05:07:37;;;;;;;0.80;0.67;;;8.40;99.90;;;;;;5087341;28;20668;-48
2022/10/01 05:10:05;;;;;;;0.70;0.70;;;8.40;99.90;;;;;;5087660;28;20236;-50
2022/10/01 05:12:32;;;;;;;1.37;1.27;;;8.40;99.90;;;;;;5086156;28;20203;-49
2022/10/01 05:14:59;;;;;;;0.90;0.87;;;8.40;99.90;;;;;;5086793;28;20204;-49
2022/10/01 05:17:27;;;;;;;0.97;0.93;;;8.40;99.90;;;;;;5088286;28;20205;-49
2022/10/01 05:19:56;;;;;;;0.90;0.90;;;8.30;99.90;;;;;;5090081;28;20210;-49
2022/10/01 05:22:23;;;;;;;0.97;0.97;;;8.30;99.90;;;;;;5090189;28;20198;-50
2022/10/01 05:24:50;;;;;;;1.53;1.43;;;8.30;99.90;;;;;;5084393;28;20629;-49
2022/10/01 05:27:17;;;;;;;2.13;2.03;;;8.30;99.90;;;;;;5090439;28;20205;-50
2022/10/01 05:29:45;;;;;;;1.53;1.43;;;8.20;99.90;;;;;;5092330;28;20231;-48
2022/10/01 05:32:13;;;;;;;1.50;1.40;;;8.20;99.90;;;;;;5091590;28;20204;-50
2022/10/01 05:34:40;;;;;;;1.73;1.63;;;8.20;99.90;;;;;;5090657;28;20198;-49
2022/10/01 05:37:10;;;;;;;1.40;1.40;;;8.20;99.90;;;;;;5093573;28;20200;-50
2022/10/01 05:39:41;;;;;;;2.50;2.30;;;8.30;99.90;;;;;;5093699;28;20218;-49
2022/10/01 05:42:08;;;;;;;2.40;1.50;;;8.30;99.90;;;;;;5091461;28;20234;-49
2022/10/01 05:44:38;;;;;;;1.70;1.60;;;8.30;99.90;;;;;;5090388;28;20199;-50
2022/10/01 05:47:05;;;;;;;1.90;1.40;;;8.40;99.90;;;;;;5087000;28;20210;-49
2022/10/01 05:49:32;;;;;;;3.07;1.40;;;8.40;99.90;;;;;;5090099;28;20763;-49
2022/10/01 05:52:00;;;;;;;2.10;0.90;;;8.50;99.90;;;;;;5093091;28;20213;-49
2022/10/01 05:54:30;;;;;;;1.47;1.23;;;8.50;99.90;;;;;;5093299;28;20194;-48
2022/10/01 05:56:57;;;;;;;2.23;1.73;;;8.50;99.90;;;;;;5089353;28;20190;-50
2022/10/01 05:59:25;;;;;;;1.60;1.37;;;8.60;99.90;;;;;;5087387;28;20220;-49
2022/10/01 06:01:52;;;;;;;1.73;1.53;;;8.60;99.90;;;;;;5092104;28;20195;-50
2022/10/01 06:04:20;;;;;;;2.13;1.93;;;8.60;99.90;;;;;;5082547;28;20288;-48
2022/10/01 06:06:47;;;;;;;3.10;2.90;;;8.60;99.90;;;;;;5091337;28;20198;-48
2022/10/01 06:09:14;;;;;;;1.80;1.70;;;8.70;99.90;;;;;;5093389;28;20250;-49
2022/10/01 06:11:42;;;;;;;1.40;1.30;;;8.70;99.90;;;;;;5092610;28;20208;-49
2022/10/01 06:14:10;;;;;;;2.53;1.40;;;8.80;99.90;;;;;;5092961;28;20198;-49
2022/10/01 06:16:37;;;;;;;0.80;0.80;;;8.80;99.90;;;;;;5093098;28;20195;-49
2022/10/01 06:19:04;;;;;;;1.00;0.90;;;9.00;99.90;;;;;;5087666;28;20218;-49
2022/10/01 06:21:31;;;;;;;2.83;1.03;;;9.00;99.90;;;;;;5087837;28;20195;-49
2022/10/01 06:23:58;;;;;;;2.13;0.93;;;9.20;99.90;;;;;;5092903;28;20226;-48
2022/10/01 06:26:25;;;;;;;0.90;0.90;;;9.20;99.90;;;;;;5086725;28;20198;-50
2022/10/01 06:28:54;;;;;;;0.70;0.70;;;9.20;99.90;;;;;;5089506;28;20219;-49
2022/10/01 06:31:21;;;;;;;0.70;0.70;;;9.20;99.90;;;;;;5092813;28;20219;-49
2022/10/01 06:33:48;;;;;;;0.77;0.77;;;9.20;99.90;;;;;;5092801;28;20206;-49
2022/10/01 06:36:15;;;;;;;0.93;0.93;;;9.20;99.90;;;;;;5092748;28;20722;-48
2022/10/01 06:38:43;;;;;;;1.97;1.87;;;9.10;99.90;;;;;;5088506;28;21049;-49
2022/10/01 06:41:10;;;;;;;1.20;1.10;;;9.10;99.90;;;;;;5089257;28;20199;-49
2022/10/01 06:43:37;;;;;;;1.03;1.03;;;9.10;99.90;;;;;;5085732;28;21058;-48
2022/10/01 06:46:06;;;;;;;2.13;1.70;;;9.00;99.90;;;;;;5091050;28;20209;-48
2022/10/01 06:48:35;;;;;;;1.67;1.57;;;9.00;99.90;;;;;;5089225;28;20227;-49
2022/10/01 06:51:03;;;;;;;2.10;1.50;;;9.00;99.90;;;;;;5079657;28;20215;-49
2022/10/01 06:53:30;;;;;;;1.47;1.37;;;9.00;99.90;;;;;;5080985;28;20268;-50
2022/10/01 06:56:03;;;;;;;3.10;1.52;;;9.00;99.90;;;;;;5088077;28;20452;-49
2022/10/01 06:58:33;;;;;;;1.90;1.20;;;9.10;99.90;;;;;;5087653;28;20201;-48
2022/10/01 07:01:01;;;;;;;0.83;0.83;;;9.10;99.90;;;;;;5088076;28;21495;-50
2022/10/01 07:03:34;;;;;;;3.27;3.07;;;9.10;99.90;;;;;;5091611;28;20244;-50
2022/10/01 07:06:03;;;;;;;13.30;10.07;;;9.10;99.90;;;;;;5086566;28;20195;-49
2022/10/01 07:08:31;;;;;;;6.30;5.70;;;9.20;99.90;;;;;;5086760;28;20259;-49
2022/10/01 07:11:03;;;;;;;6.60;4.87;;;9.20;99.90;;;;;;5074056;28;20226;-48
2022/10/01 07:13:33;;;;;;;2.93;2.30;;;9.20;99.90;;;;;;5076876;28;20204;-48
2022/10/01 07:16:03;;;;;;;12.07;10.57;;;9.30;99.90;;;;;;5084205;28;20229;-49
2022/10/01 07:18:33;;;;;;;8.87;7.97;;;9.30;99.90;;;;;;5091527;28;20272;-49
2022/10/01 07:21:01;;;;;;;5.57;5.07;;;9.30;99.90;;;;;;5085190;28;20259;-48
2022/10/01 07:23:28;;;;;;;6.00;5.40;;;9.30;99.90;;;;;;5084295;28;20294;-50
2022/10/01 07:25:55;;;;;;;6.33;5.73;;;9.30;99.90;;;;;;5091942;28;20633;-49
2022/10/01 07:28:24;;;;;;;8.93;8.03;;;9.40;99.90;;;;;;5092782;28;20263;-49
2022/10/01 07:30:59;;;;;;;4.63;4.23;;;9.40;99.90;;;;;;5090125;28;20250;-50
2022/10/01 07:33:26;;;;;;;1.60;1.50;;;9.40;99.90;;;;;;5078505;28;20203;-49
2022/10/01 07:35:54;;;;;;;2.00;1.90;;;9.50;99.90;;;;;;5088265;28;20201;-51
2022/10/01 07:38:21;;;;;;;1.87;1.77;;;9.50;99.90;;;;;;5086954;28;20991;-49
2022/10/01 07:40:51;;;;;;;2.17;1.50;;;9.60;99.90;;;;;;5086981;28;20675;-49
2022/10/01 07:43:18;;;;;;;1.13;1.13;;;9.60;99.90;;;;;;5084606;28;20211;-49
2022/10/01 07:45:46;;;;;;;2.20;1.00;;;9.80;99.90;;;;;;5092347;28;20195;-48
2022/10/01 07:48:14;;;;;;;1.97;1.10;;;9.70;99.90;;;;;;5085584;28;20203;-49
2022/10/01 07:50:44;;;;;;;1.00;1.00;;;9.70;99.90;;;;;;5084352;28;20239;-48
2022/10/01 07:53:13;;;;;;;2.27;1.07;;;9.70;99.90;;;;;;5082672;28;20211;-49
2022/10/01 07:55:40;;;;;;;1.20;1.00;;;9.80;99.90;;;;;;5090219;28;20753;-48
2022/10/01 07:58:08;;;;;;;2.63;2.20;;;9.70;99.90;;;;;;5089781;28;20199;-49
2022/10/01 08:00:35;;;;;;;1.80;1.00;;;9.80;99.90;;;;;;5085933;28;20294;-48
2022/10/01 08:03:02;;;;;;;0.87;0.80;;;9.80;99.90;;;;;;5083368;28;20195;-48
2022/10/01 08:05:31;;;;;;;1.07;1.07;;;9.80;99.90;;;;;;5080666;28;20210;-48
2022/10/01 08:07:59;;;;;;;1.07;1.07;;;9.90;99.90;;;;;;5086683;28;20230;-48
2022/10/01 08:10:28;;;;;;;1.00;0.97;;;9.90;99.90;;;;;;5087934;28;20233;-48
2022/10/01 08:13:00;;;;;;;1.27;0.90;;;10.00;99.90;;;;;;5087177;28;20221;-49
2022/10/01 08:15:27;;;;;;;0.80;0.80;;;10.10;99.90;;;;;;5082428;28;20572;-49
2022/10/01 08:17:54;;;;;;;2.10;1.20;;;10.20;99.90;;;;;;5082762;28;20201;-49
2022/10/01 08:20:21;;;;;;;1.00;0.77;;;10.10;99.90;;;;;;5081318;28;20226;-49
2022/10/01 08:22:48;;;;;;;0.67;0.67;;;10.30;99.90;;;;;;5089639;28;20195;-49
2022/10/01 08:25:15;;;;;;;0.80;0.80;;;10.30;99.90;;;;;;5091772;28;20251;-49
2022/10/01 08:27:43;;;;;;;0.97;0.60;;;10.30;99.90;;;;;;5089416;28;20214;-48
2022/10/01 08:30:11;;;;;;;0.67;0.67;;;10.40;99.90;;;;;;5091748;28;20560;-48
2022/10/01 08:32:38;;;;;;;2.37;0.60;;;10.50;99.90;;;;;;5089518;28;20299;-49
2022/10/01 08:35:06;;;;;;;1.47;0.57;;;10.50;99.90;;;;;;5087687;28;20264;-50
2022/10/01 08:37:33;;;;;;;0.50;0.50;;;10.60;99.90;;;;;;5080567;28;20208;-49
2022/10/01 08:40:01;;;;;;;1.27;0.40;;;10.60;99.90;;;;;;5071298;28;20326;-49
2022/10/01 08:42:47;;;;;;;0.63;0.63;;;10.60;99.90;;;;;;5071539;28;20196;-49
2022/10/01 08:45:20;;;;;;;0.90;0.40;;;10.60;99.90;;;;;;5090217;28;20241;-49
2022/10/01 08:47:53;;;;;;;1.30;0.60;;;10.60;99.90;;;;;;5091528;28;20197;-48
2022/10/01 08:50:30;;;;;;;1.63;1.20;;;10.60;99.90;;;;;;5084371;28;20723;-50
2022/10/01 08:53:01;;;;;;;4.30;0.70;;;10.60;99.90;;;;;;5088160;28;20223;-48
2022/10/01 08:55:35;;;;;;;1.03;0.50;;;10.60;99.90;;;;;;5082245;28;20804;-49
2022/10/01 08:58:05;;;;;;;0.70;0.70;;;10.70;99.90;;;;;;5074590;28;20284;-49
2022/10/01 09:00:38;;;;;;;0.60;0.60;;;10.70;99.90;;;;;;5080464;28;20276;-50
2022/10/01 09:03:07;;;;;;;0.80;0.80;;;10.70;99.90;;;;;;5085733;28;20498;-48
2022/10/01 09:05:41;;;;;;;1.70;1.10;;;10.70;99.90;;;;;;5085563;28;20204;-49
2022/10/01 09:08:20;;;;;;;1.07;0.90;;;10.60;99.90;;;;;;5081069;28;20216;-50
2022/10/01 09:10:49;;;;;;;0.87;0.87;;;10.60;99.90;;;;;;5088912;28;20219;-48
2022/10/01 09:13:51;;;;;;;1.10;1.00;;;10.50;99.90;;;;;;5093797;28;20206;-50
2022/10/01 09:16:24;;;;;;;1.67;1.57;;;10.60;99.90;;;;;;5094389;28;20240;-50
2022/10/01 09:19:02;;;;;;;0.97;0.90;;;10.60;99.90;;;;;;5092398;28;20226;-49
2022/10/01 09:21:46;;;;;;;1.57;0.90;;;10.60;99.90;;;;;;5091603;28;20213;-48
2022/10/01 09:24:15;;;;;;;3.13;1.53;;;10.60;99.90;;;;;;5092819;28;20196;-49
2022/10/01 09:26:48;;;;;;;2.00;0.90;;;10.70;99.90;;;;;;5093971;28;20199;-48
2022/10/01 09:29:24;;;;;;;3.33;1.43;;;10.70;99.90;;;;;;5089756;28;20301;-49
2022/10/01 09:31:53;;;;;;;1.73;1.63;;;10.70;99.90;;;;;;5093523;28;20208;-49
2022/10/01 09:34:28;;;;;;;3.00;1.57;;;10.70;99.90;;;;;;5088935;28;20283;-48
2022/10/01 09:37:04;;;;;;;1.70;1.60;;;10.70;99.90;;;;;;5093058;28;20279;-49
2022/10/01 09:39:38;;;;;;;4.33;1.63;;;10.70;99.90;;;;;;5085934;28;20222;-48
2022/10/01 09:42:05;;;;;;;2.77;1.37;;;10.80;99.90;;;;;;5091736;28;20349;-48
2022/10/01 09:44:34;;;;;;;2.03;1.53;;;10.80;99.90;;;;;;5086720;28;20269;-49
2022/10/01 09:47:01;;;;;;;4.10;2.97;;;10.80;99.90;;;;;;5090616;28;20199;-49
2022/10/01 09:49:33;;;;;;;1.13;1.03;;;10.90;99.90;;;;;;5088129;28;20231;-49
2022/10/01 09:52:06;;;;;;;3.17;1.20;;;11.00;99.90;;;;;;5090636;28;20229;-49
2022/10/01 09:54:37;;;;;;;3.80;1.93;;;11.00;99.90;;;;;;5083463;28;20222;-48
2022/10/01 09:57:09;;;;;;;1.03;0.77;;;10.90;99.90;;;;;;5087139;28;20279;-49
2022/10/01 09:59:44;;;;;;;0.80;0.80;;;10.90;99.90;;;;;;5084579;28;20227;-49
2022/10/01 10:02:20;;;;;;;2.00;0.50;;;10.90;99.90;;;;;;5082779;28;20287;-48
2022/10/01 10:04:47;;;;;;;1.13;0.57;;;10.90;99.90;;;;;;5085600;28;20670;-49
2022/10/01 10:07:18;;;;;;;0.70;0.70;;;10.90;99.90;;;;;;5093999;28;20205;-49
2022/10/01 10:09:46;;;;;;;0.90;0.90;;;11.00;99.90;;;;;;5083692;28;20289;-49
2022/10/01 10:12:28;;;;;;;0.67;0.67;;;11.00;99.90;;;;;;5091610;28;20326;-48
2022/10/01 10:14:57;;;;;;;0.83;0.83;;;11.10;99.90;;;;;;5082472;28;20291;-48
2022/10/01 10:17:25;;;;;;;5.20;1.37;;;11.00;99.90;;;;;;5075044;28;20205;-48
2022/10/01 10:19:53;;;;;;;2.43;1.13;;;11.00;99.90;;;;;;5084346;28;20230;-50
2022/10/01 10:22:24;;;;;;;1.97;1.80;;;11.00;99.90;;;;;;5094318;28;20204;-49
2022/10/01 10:24:53;;;;;;;3.33;1.70;;;11.00;99.90;;;;;;5093923;28;20211;-50
2022/10/01 10:27:25;;;;;;;2.80;0.77;;;10.90;99.90;;;;;;5094067;28;20294;-49
2022/10/01 10:30:05;;;;;;;2.00;1.10;;;11.00;99.90;;;;;;5084679;28;20224;-48
2022/10/01 10:32:32;;;;;;;0.80;0.70;;;11.00;99.90;;;;;;5075187;28;20227;-49
2022/10/01 10:35:04;;;;;;;1.90;1.80;;;11.00;99.90;;;;;;5089860;28;20230;-49
2022/10/01 10:37:36;;;;;;;2.20;2.07;;;10.90;99.90;;;;;;5093743;28;20207;-49
2022/10/01 10:40:06;;;;;;;3.00;2.80;;;10.80;99.90;;;;;;5089112;28;20246;-49
2022/10/01 10:42:36;;;;;;;4.27;3.90;;;10.80;99.90;;;;;;5088621;28;20200;-48
2022/10/01 10:45:16;;;;;;;3.77;3.47;;;10.70;99.90;;;;;;5077901;28;20199;-51
2022/10/01 10:47:46;;;;;;;2.93;2.73;;;10.80;99.90;;;;;;5089910;28;20623;-48
2022/10/01 10:50:28;;;;;;;3.03;2.83;;;10.80;99.90;;;;;;5081228;28;20646;-48
2022/10/01 10:52:55;;;;;;;3.63;3.40;;;10.80;99.90;;;;;;5082222;28;20274;-49
2022/10/01 10:55:25;;;;;;;3.43;3.23;;;10.70;99.90;;;;;;5083716;28;20213;-48
2022/10/01 10:57:53;;;;;;;3.40;3.10;;;10.70;99.90;;;;;;5084154;28;20257;-48
2022/10/01 11:00:23;;;;;;;3.27;2.90;;;10.70;99.90;;;;;;5086471;28;20822;-48
2022/10/01 11:02:55;;;;;;;3.17;2.97;;;10.70;99.90;;;;;;5076694;28;20307;-48
2022/10/01 11:05:26;;;;;;;3.70;3.37;;;10.80;99.90;;;;;;5085083;28;20664;-49
2022/10/01 11:07:57;;;;;;;3.70;2.97;;;10.80;99.90;;;;;;5085535;28;20253;-48
2022/10/01 11:10:33;;;;;;;3.30;2.90;;;11.00;99.90;;;;;;5085352;28;20248;-48
2022/10/01 11:13:28;;;;;;;2.77;2.67;;;11.00;99.90;;;;;;5090363;28;20222;-48
2022/10/01 11:16:19;;;;;;;3.00;2.80;;;11.00;99.90;;;;;;5090529;28;20211;-48
2022/10/01 11:19:07;;;;;;;3.60;3.40;;;11.20;99.90;;;;;;5091060;28;20656;-49
2022/10/01 11:21:57;;;;;;;4.17;3.77;;;11.30;99.90;;;;;;5089047;28;20211;-49
2022/10/01 11:24:40;;;;;;;3.30;3.10;;;11.30;99.90;;;;;;5077706;28;20211;-48
2022/10/01 11:27:18;;;;;;;3.13;2.83;;;11.30;99.90;;;;;;5084761;28;20237;-48
2022/10/01 11:29:54;;;;;;;5.03;3.47;;;11.30;99.90;;;;;;5090823;28;20311;-49
2022/10/01 11:32:34;;;;;;;3.83;3.50;;;11.30;99.90;;;;;;5091036;28;20238;-49
2022/10/01 11:35:15;;;;;;;4.17;3.77;;;11.20;99.90;;;;;;5092598;28;20287;-49
2022/10/01 11:37:53;;;;;;;7.30;5.00;;;11.20;99.90;;;;;;5083602;28;20650;-48
2022/10/01 11:40:25;;;;;;;6.03;5.23;;;11.30;99.90;;;;;;5082096;28;20239;-49
2022/10/01 11:42:59;;;;;;;6.27;5.73;;;11.30;99.90;;;;;;5086930;28;20197;-48
2022/10/01 11:45:30;;;;;;;6.53;4.63;;;11.30;99.90;;;;;;5082418;28;20687;-49
2022/10/01 11:48:03;;;;;;;4.83;4.37;;;11.30;99.90;;;;;;5092202;28;20668;-49
2022/10/01 11:50:33;;;;;;;5.53;5.13;;;11.20;99.90;;;;;;5083988;28;20226;-49
2022/10/01 11:53:07;;;;;;;5.80;3.97;;;11.30;99.90;;;;;;5092110;28;20219;-48
2022/10/01 12:01:19;;;;;;;4.73;4.13;;;11.10;99.90;;;;;;5080252;28;20684;-49
2022/10/01 12:04:05;;;;;;;4.27;3.57;;;11.10;99.90;;;;;;5091597;28;20576;-49
2022/10/01 12:06:37;;;;;;;3.87;3.57;;;11.00;99.90;;;;;;5092099;28;20214;-49
2022/10/01 12:09:14;;;;;;;5.80;5.33;;;11.10;99.90;;;;;;5088817;28;20969;-48
2022/10/01 12:11:48;;;;;;;6.00;5.40;;;11.20;99.90;;;;;;5084831;28;20630;-49
2022/10/01 12:14:20;;;;;;;4.47;4.17;;;11.20;99.90;;;;;;5081119;28;20265;-49
2022/10/01 12:16:53;;;;;;;5.60;5.17;;;11.30;99.90;;;;;;5079465;28;20199;-49
2022/10/01 12:19:27;;;;;;;3.53;3.43;;;11.20;99.90;;;;;;5084897;28;20231;-48
2022/10/01 12:21:58;;;;;;;3.43;3.20;;;11.30;99.90;;;;;;5089590;28;20282;-49
2022/10/01 12:24:30;;;;;;;2.63;2.53;;;11.30;99.90;;;;;;5088254;28;20258;-49
2022/10/01 12:27:09;;;;;;;3.33;3.13;;;11.20;99.90;;;;;;5088069;28;20679;-50
2022/10/01 12:29:44;;;;;;;2.53;2.43;;;11.20;99.90;;;;;;5088565;28;20218;-49
2022/10/01 12:32:21;;;;;;;2.67;2.40;;;11.10;99.90;;;;;;5084662;28;20215;-49
2022/10/01 12:35:04;;;;;;;3.17;2.70;;;11.00;99.90;;;;;;5079146;28;20699;-48
2022/10/01 12:37:44;;;;;;;3.07;2.93;;;11.00;99.90;;;;;;5081708;28;20556;-49
2022/10/01 12:40:27;;;;;;;6.73;6.23;;;11.20;99.90;;;;;;5081422;28;20239;-48
2022/10/01 12:43:13;;;;;;;8.60;6.80;;;11.20;99.90;;;;;;5085412;28;20196;-48
2022/10/01 12:45:48;;;;;;;10.57;8.73;;;11.30;99.90;;;;;;5089621;28;20203;-50
2022/10/01 12:48:23;;;;;;;7.33;6.63;;;11.20;99.90;;;;;;5075387;28;20726;-50
2022/10/01 12:51:11;;;;;;;6.67;5.33;;;11.20;99.90;;;;;;5076338;28;20234;-49
2022/10/01 12:53:44;;;;;;;6.10;5.50;;;11.20;99.90;;;;;;5087673;28;20272;-49
2022/10/01 12:56:17;;;;;;;6.33;5.80;;;11.20;99.90;;;;;;5091401;28;20739;-49
2022/10/01 12:58:56;;;;;;;5.30;4.80;;;11.20;99.90;;;;;;5080289;28;20229;-51
2022/10/01 13:01:36;;;;;;;5.57;5.17;;;11.20;99.90;;;;;;5083630;28;20538;-51
2022/10/01 13:04:25;;;;;;;6.50;6.00;;;11.10;99.90;;;;;;5082906;28;20191;-49
2022/10/01 13:07:06;;;;;;;6.07;5.50;;;11.20;99.90;;;;;;5078001;28;20263;-49
2022/10/01 13:09:42;;;;;;;6.63;6.00;;;11.30;99.90;;;;;;5087687;28;20734;-49
2022/10/01 13:12:25;;;;;;;7.17;5.57;;;11.20;99.90;;;;;;5084331;28;20266;-50
2022/10/01 13:14:53;;;;;;;5.40;5.00;;;11.20;99.90;;;;;;5084475;28;20200;-49
2022/10/01 13:17:27;;;;;;;6.03;5.13;;;11.10;99.90;;;;;;5083951;28;20228;-49
2022/10/01 13:20:01;;;;;;;4.40;4.20;;;11.10;99.90;;;;;;5090207;28;20714;-49
2022/10/01 13:22:38;;;;;;;5.40;5.00;;;11.10;99.90;;;;;;5082798;28;20207;-49